Bangkok (Suvarnabhumi), Thailand

9:07 AM ICT on March 02, 2015 (GMT +0700)
Bangkok (Suvarnabhumi) | Change Station
CLOSE
Current Station
Airport
Location: Bangkok (Suvarnabhumi),
Elevation: 7 ft
Nearby Weather Stations

Elev 7 ft 13.36 °N, 100.98 °E | Updated 7 minutes ago

Heavy Thunderstorms and Rain
Heavy Thunderstorm Rain
79 °F
Feels Like 79 °F
N
13
Wind Variable Wind from NE

Today
High -- | Low -- °F
--% Chance of Precip.
Yesterday
High -- | Low -- °F
Precip. -- in
6:32 AM 6:24 PM
Waxing Gibbous, 88% visible
Pressure 29.98 in
Visibility 0.6 miles
Clouds Few 500 ft
Scattered Clouds 1500 ft
Scattered Clouds 3000 ft
Mostly Cloudy 10000 ft
Dew Point 72 °F
Humidity 78%
Rainfall 0.00 in
Snow Depth Not available.
UV 3 out of 12
Pollen Not available.
Air Quality Not available.
Flu Activity Not available.
METAR VTBS 020200Z 05011KT 020V080 1000 R01R/0650 R01L/2000 +TSRA FEW005 SCT015CB SCT030 BKN100 26/22 Q1015 BECMG TL0230 3000 TSRA

More Conditions Fewer Conditions

Pressure 29.98 in
Visibility 0.6 miles
Clouds Few 500 ft
Scattered Clouds 1500 ft
Scattered Clouds 3000 ft
Mostly Cloudy 10000 ft
Dew Point 72 °F
Humidity 78%
Rainfall 0.00 in
Snow Depth Not available.
UV 3 out of 12
Pollen Not available.
Air Quality Not available.
Flu Activity Not available.
METAR VTBS 020200Z 05011KT 020V080 1000 R01R/0650 R01L/2000 +TSRA FEW005 SCT015CB SCT030 BKN100 26/22 Q1015 BECMG TL0230 3000 TSRA

More Conditions Fewer Conditions

10-Day Weather Forecast

Almanac

Astronomy

Mar. 02, 2015 Rise Set
Actual Time
Civil Twilight
Nautical Twilight
Astronomical Twilight
Moon
Length of Visible Light
Length of Day
Tomorrow will be .
, % of the Moon is Illuminated

Today's Extremes

Country Highs Country Lows

Community

WunderPhotos

Upload Photos

1,801,679 photos uploaded!

WunderBlogs® & News

Nearby

Air Quality

  Air Quality AQ Index Pollutant
Not available.

Snow Depth

Station Depth Elevation

Earthquake Activity

City Distance Mag. Time & Date
Minimum magnitude displayed is 2.5.

Coastal Water Temperatures

Place Temperature

Nearby Weather Stations